sensor_id;sensor_type;location;lat;lon;timestamp;pressure;altitude;pressure_sealevel;temperature;humidity
60355;BME280;46198;51.464;-0.066;2022-11-04T00:01:52;99879.09;;;8.57;100.00
60355;BME280;46198;51.464;-0.066;2022-11-04T00:04:21;99883.22;;;8.59;100.00
60355;BME280;46198;51.464;-0.066;2022-11-04T00:06:51;99879.84;;;8.64;100.00
60355;BME280;46198;51.464;-0.066;2022-11-04T00:09:21;99883.16;;;8.66;100.00
60355;BME280;46198;51.464;-0.066;2022-11-04T00:11:50;99894.53;;;8.68;100.00
60355;BME280;46198;51.464;-0.066;2022-11-04T00:14:37;99897.72;;;8.65;100.00
60355;BME280;46198;51.464;-0.066;2022-11-04T00:17:09;99899.13;;;8.68;100.00
60355;BME280;46198;51.464;-0.066;2022-11-04T00:19:46;99902.66;;;8.68;100.00
60355;BME280;46198;51.464;-0.066;2022-11-04T00:22:34;99910.56;;;8.70;100.00
60355;BME280;46198;51.464;-0.066;2022-11-04T00:25:20;99907.59;;;8.71;100.00
60355;BME280;46198;51.464;-0.066;2022-11-04T00:28:13;99909.28;;;8.72;100.00
60355;BME280;46198;51.464;-0.066;2022-11-04T00:31:08;99916.78;;;8.70;100.00
60355;BME280;46198;51.464;-0.066;2022-11-04T00:33:55;99920.72;;;8.74;100.00
60355;BME280;46198;51.464;-0.066;2022-11-04T00:36:25;99916.09;;;8.75;100.00
60355;BME280;46198;51.464;-0.066;2022-11-04T00:38:54;99918.81;;;8.75;100.00
60355;BME280;46198;51.464;-0.066;2022-11-04T00:41:22;99925.19;;;8.80;100.00
60355;BME280;46198;51.464;-0.066;2022-11-04T00:43:55;99924.84;;;8.77;100.00
60355;BME280;46198;51.464;-0.066;2022-11-04T00:46:24;99920.72;;;8.74;100.00
60355;BME280;46198;51.464;-0.066;2022-11-04T00:48:52;99932.09;;;8.76;100.00
60355;BME280;46198;51.464;-0.066;2022-11-04T00:51:21;99933.63;;;8.72;100.00
60355;BME280;46198;51.464;-0.066;2022-11-04T00:53:49;99954.81;;;8.75;100.00
60355;BME280;46198;51.464;-0.066;2022-11-04T00:56:19;99948.81;;;8.73;100.00
60355;BME280;46198;51.464;-0.066;2022-11-04T00:58:47;99948.34;;;8.76;100.00
60355;BME280;46198;51.464;-0.066;2022-11-04T01:01:17;99951.06;;;8.76;100.00
60355;BME280;46198;51.464;-0.066;2022-11-04T01:03:47;99956.00;;;8.79;100.00
60355;BME280;46198;51.464;-0.066;2022-11-04T01:06:16;99956.00;;;8.79;100.00
60355;BME280;46198;51.464;-0.066;2022-11-04T01:08:45;99953.28;;;8.79;100.00
60355;BME280;46198;51.464;-0.066;2022-11-04T01:11:13;99969.19;;;8.76;100.00
60355;BME280;46198;51.464;-0.066;2022-11-04T01:13:43;99970.09;;;8.70;100.00
60355;BME280;46198;51.464;-0.066;2022-11-04T01:16:11;99957.84;;;8.67;100.00
60355;BME280;46198;51.464;-0.066;2022-11-04T01:18:40;99970.56;;;8.67;100.00
60355;BME280;46198;51.464;-0.066;2022-11-04T01:21:10;99985.53;;;8.69;100.00
60355;BME280;46198;51.464;-0.066;2022-11-04T01:23:40;99972.19;;;8.68;100.00
60355;BME280;46198;51.464;-0.066;2022-11-04T01:26:10;99971.25;;;8.62;100.00
60355;BME280;46198;51.464;-0.066;2022-11-04T01:28:39;99976.03;;;8.60;100.00
60355;BME280;46198;51.464;-0.066;2022-11-04T01:31:11;99972.31;;;8.61;100.00
60355;BME280;46198;51.464;-0.066;2022-11-04T01:33:40;99981.84;;;8.63;100.00
60355;BME280;46198;51.464;-0.066;2022-11-04T01:36:09;99982.22;;;8.67;100.00
60355;BME280;46198;51.464;-0.066;2022-11-04T01:38:37;99992.56;;;8.70;100.00
60355;BME280;46198;51.464;-0.066;2022-11-04T01:41:07;99992.22;;;8.67;100.00
60355;BME280;46198;51.464;-0.066;2022-11-04T01:43:43;100000.94;;;8.69;100.00
60355;BME280;46198;51.464;-0.066;2022-11-04T01:46:20;100002.56;;;8.70;100.00
60355;BME280;46198;51.464;-0.066;2022-11-04T01:48:50;100008.34;;;8.73;100.00
60355;BME280;46198;51.464;-0.066;2022-11-04T01:51:19;100011.66;;;8.75;100.00
60355;BME280;46198;51.464;-0.066;2022-11-04T01:53:49;100022.50;;;8.75;100.00
60355;BME280;46198;51.464;-0.066;2022-11-04T01:56:19;100018.72;;;8.76;100.00
60355;BME280;46198;51.464;-0.066;2022-11-04T01:58:51;100019.19;;;8.73;100.00
60355;BME280;46198;51.464;-0.066;2022-11-04T02:01:22;100032.50;;;8.75;100.00
60355;BME280;46198;51.464;-0.066;2022-11-04T02:03:53;100024.84;;;8.72;100.00
60355;BME280;46198;51.464;-0.066;2022-11-04T02:06:44;100024.97;;;8.77;100.00
60355;BME280;46198;51.464;-0.066;2022-11-04T02:09:13;100038.72;;;8.75;100.00
60355;BME280;46198;51.464;-0.066;2022-11-04T02:11:42;100027.69;;;8.77;100.00
60355;BME280;46198;51.464;-0.066;2022-11-04T02:14:29;100040.38;;;8.76;100.00
60355;BME280;46198;51.464;-0.066;2022-11-04T02:17:04;100046.38;;;8.78;100.00
60355;BME280;46198;51.464;-0.066;2022-11-04T02:19:54;100053.09;;;8.76;100.00
60355;BME280;46198;51.464;-0.066;2022-11-04T02:22:40;100048.50;;;8.76;100.00
60355;BME280;46198;51.464;-0.066;2022-11-04T02:25:30;100056.47;;;8.71;100.00
60355;BME280;46198;51.464;-0.066;2022-11-04T02:28:21;100062.13;;;8.70;100.00
60355;BME280;46198;51.464;-0.066;2022-11-04T02:31:02;100062.94;;;8.70;100.00
60355;BME280;46198;51.464;-0.066;2022-11-04T02:33:40;100075.03;;;8.68;100.00
60355;BME280;46198;51.464;-0.066;2022-11-04T02:36:13;100095.06;;;8.67;100.00
60355;BME280;46198;51.464;-0.066;2022-11-04T02:38:50;100093.84;;;8.62;100.00
60355;BME280;46198;51.464;-0.066;2022-11-04T02:41:27;100095.09;;;8.60;100.00
60355;BME280;46198;51.464;-0.066;2022-11-04T02:44:07;100095.34;;;8.58;100.00
60355;BME280;46198;51.464;-0.066;2022-11-04T02:46:45;100103.69;;;8.57;100.00
60355;BME280;46198;51.464;-0.066;2022-11-04T02:49:24;100108.06;;;8.58;100.00
60355;BME280;46198;51.464;-0.066;2022-11-04T02:51:57;100119.09;;;8.56;100.00
60355;BME280;46198;51.464;-0.066;2022-11-04T02:54:32;100127.66;;;8.53;100.00
60355;BME280;46198;51.464;-0.066;2022-11-04T02:57:03;100138.25;;;8.55;100.00
60355;BME280;46198;51.464;-0.066;2022-11-04T02:59:36;100138.84;;;8.57;100.00
60355;BME280;46198;51.464;-0.066;2022-11-04T03:02:11;100147.25;;;8.49;100.00
60355;BME280;46198;51.464;-0.066;2022-11-04T03:04:45;100158.69;;;8.51;100.00
60355;BME280;46198;51.464;-0.066;2022-11-04T03:07:14;100166.03;;;8.43;100.00
60355;BME280;46198;51.464;-0.066;2022-11-04T03:09:48;100172.22;;;8.51;100.00
60355;BME280;46198;51.464;-0.066;2022-11-04T03:12:19;100177.25;;;8.47;100.00
60355;BME280;46198;51.464;-0.066;2022-11-04T03:14:54;100181.06;;;8.39;100.00
60355;BME280;46198;51.464;-0.066;2022-11-04T03:17:31;100185.66;;;8.39;100.00
60355;BME280;46198;51.464;-0.066;2022-11-04T03:20:06;100194.84;;;8.31;100.00
60355;BME280;46198;51.464;-0.066;2022-11-04T03:22:36;100195.28;;;8.28;100.00
60355;BME280;46198;51.464;-0.066;2022-11-04T03:25:06;100197.41;;;8.19;100.00
60355;BME280;46198;51.464;-0.066;2022-11-04T03:27:38;100203.72;;;8.13;100.00
60355;BME280;46198;51.464;-0.066;2022-11-04T03:30:10;100206.66;;;8.12;100.00
60355;BME280;46198;51.464;-0.066;2022-11-04T03:32:43;100219.81;;;8.02;100.00
60355;BME280;46198;51.464;-0.066;2022-11-04T03:35:16;100217.13;;;7.95;100.00
60355;BME280;46198;51.464;-0.066;2022-11-04T03:37:46;100226.94;;;7.89;100.00
60355;BME280;46198;51.464;-0.066;2022-11-04T03:40:16;100219.25;;;7.93;100.00
60355;BME280;46198;51.464;-0.066;2022-11-04T03:42:47;100220.28;;;7.92;100.00
60355;BME280;46198;51.464;-0.066;2022-11-04T03:45:18;100219.88;;;7.88;100.00
60355;BME280;46198;51.464;-0.066;2022-11-04T03:47:48;100229.91;;;7.81;100.00
60355;BME280;46198;51.464;-0.066;2022-11-04T03:50:19;100228.00;;;7.88;100.00
60355;BME280;46198;51.464;-0.066;2022-11-04T03:52:50;100224.91;;;7.85;100.00
60355;BME280;46198;51.464;-0.066;2022-11-04T03:55:18;100238.00;;;7.81;100.00
60355;BME280;46198;51.464;-0.066;2022-11-04T03:57:49;100244.69;;;7.78;100.00
60355;BME280;46198;51.464;-0.066;2022-11-04T04:00:21;100246.38;;;7.73;100.00
60355;BME280;46198;51.464;-0.066;2022-11-04T04:02:57;100243.66;;;7.80;100.00
60355;BME280;46198;51.464;-0.066;2022-11-04T04:05:28;100240.97;;;7.73;100.00
60355;BME280;46198;51.464;-0.066;2022-11-04T04:08:11;100237.06;;;7.69;100.00
60355;BME280;46198;51.464;-0.066;2022-11-04T04:10:49;100244.97;;;7.64;100.00
60355;BME280;46198;51.464;-0.066;2022-11-04T04:13:26;100252.44;;;7.68;100.00
60355;BME280;46198;51.464;-0.066;2022-11-04T04:16:02;100272.00;;;7.64;100.00
60355;BME280;46198;51.464;-0.066;2022-11-04T04:18:41;100280.09;;;7.64;100.00
60355;BME280;46198;51.464;-0.066;2022-11-04T04:21:15;100274.25;;;7.67;100.00
60355;BME280;46198;51.464;-0.066;2022-11-04T04:23:48;100288.38;;;7.69;100.00
60355;BME280;46198;51.464;-0.066;2022-11-04T04:26:39;100279.28;;;7.63;100.00
60355;BME280;46198;51.464;-0.066;2022-11-04T04:29:26;100284.88;;;7.62;100.00
60355;BME280;46198;51.464;-0.066;2022-11-04T04:31:57;100285.28;;;7.65;100.00
60355;BME280;46198;51.464;-0.066;2022-11-04T04:34:29;100287.56;;;7.62;100.00
60355;BME280;46198;51.464;-0.066;2022-11-04T04:37:00;100297.97;;;7.65;100.00
60355;BME280;46198;51.464;-0.066;2022-11-04T04:39:35;100308.38;;;7.61;100.00
60355;BME280;46198;51.464;-0.066;2022-11-04T04:42:24;100310.88;;;7.63;100.00
60355;BME280;46198;51.464;-0.066;2022-11-04T04:45:19;100309.81;;;7.57;100.00
60355;BME280;46198;51.464;-0.066;2022-11-04T04:47:48;100315.66;;;7.61;100.00
60355;BME280;46198;51.464;-0.066;2022-11-04T04:50:19;100322.06;;;7.60;100.00
60355;BME280;46198;51.464;-0.066;2022-11-04T04:52:49;100350.56;;;7.55;100.00
60355;BME280;46198;51.464;-0.066;2022-11-04T04:55:19;100347.88;;;7.55;100.00
60355;BME280;46198;51.464;-0.066;2022-11-04T04:57:47;100350.78;;;7.54;100.00
60355;BME280;46198;51.464;-0.066;2022-11-04T05:00:18;100364.09;;;7.55;100.00
60355;BME280;46198;51.464;-0.066;2022-11-04T05:02:47;100367.22;;;7.52;100.00
60355;BME280;46198;51.464;-0.066;2022-11-04T05:05:19;100364.50;;;7.52;100.00
60355;BME280;46198;51.464;-0.066;2022-11-04T05:07:47;100372.41;;;7.47;100.00
60355;BME280;46198;51.464;-0.066;2022-11-04T05:10:16;100379.47;;;7.48;100.00
60355;BME280;46198;51.464;-0.066;2022-11-04T05:12:45;100384.47;;;7.45;100.00
60355;BME280;46198;51.464;-0.066;2022-11-04T05:15:30;100399.84;;;7.38;100.00
60355;BME280;46198;51.464;-0.066;2022-11-04T05:18:00;100412.34;;;7.39;100.00
60355;BME280;46198;51.464;-0.066;2022-11-04T05:20:30;100411.91;;;7.35;100.00
60355;BME280;46198;51.464;-0.066;2022-11-04T05:23:00;100421.69;;;7.36;100.00
60355;BME280;46198;51.464;-0.066;2022-11-04T05:25:28;100416.69;;;7.33;100.00
60355;BME280;46198;51.464;-0.066;2022-11-04T05:27:58;100421.69;;;7.36;100.00
60355;BME280;46198;51.464;-0.066;2022-11-04T05:30:27;100425.41;;;7.35;100.00
60355;BME280;46198;51.464;-0.066;2022-11-04T05:32:55;100439.75;;;7.29;100.00
60355;BME280;46198;51.464;-0.066;2022-11-04T05:35:30;100446.59;;;7.31;100.00
60355;BME280;46198;51.464;-0.066;2022-11-04T05:38:00;100460.09;;;7.31;100.00
60355;BME280;46198;51.464;-0.066;2022-11-04T05:40:28;100469.25;;;7.30;100.00
60355;BME280;46198;51.464;-0.066;2022-11-04T05:42:57;100477.13;;;7.32;100.00
60355;BME280;46198;51.464;-0.066;2022-11-04T05:45:26;100478.19;;;7.31;100.00
60355;BME280;46198;51.464;-0.066;2022-11-04T05:47:58;100475.91;;;7.28;100.00
60355;BME280;46198;51.464;-0.066;2022-11-04T05:50:28;100495.22;;;7.31;100.00
60355;BME280;46198;51.464;-0.066;2022-11-04T05:52:58;100508.31;;;7.28;100.00
60355;BME280;46198;51.464;-0.066;2022-11-04T05:55:26;100501.44;;;7.32;100.00
60355;BME280;46198;51.464;-0.066;2022-11-04T05:57:54;100506.03;;;7.25;100.00
60355;BME280;46198;51.464;-0.066;2022-11-04T06:00:25;100511.22;;;7.20;100.00
60355;BME280;46198;51.464;-0.066;2022-11-04T06:02:54;100514.50;;;7.22;100.00
60355;BME280;46198;51.464;-0.066;2022-11-04T06:05:23;100521.78;;;7.21;100.00
60355;BME280;46198;51.464;-0.066;2022-11-04T06:07:51;100536.53;;;7.19;100.00
60355;BME280;46198;51.464;-0.066;2022-11-04T06:10:21;100545.69;;;7.18;100.00
60355;BME280;46198;51.464;-0.066;2022-11-04T06:12:49;100548.56;;;7.16;100.00
60355;BME280;46198;51.464;-0.066;2022-11-04T06:15:17;100564.59;;;7.18;100.00
60355;BME280;46198;51.464;-0.066;2022-11-04T06:17:46;100565.81;;;7.15;100.00
60355;BME280;46198;51.464;-0.066;2022-11-04T06:20:14;100563.53;;;7.12;100.00
60355;BME280;46198;51.464;-0.066;2022-11-04T06:22:42;100573.28;;;7.06;100.00
60355;BME280;46198;51.464;-0.066;2022-11-04T06:25:10;100574.75;;;7.09;100.00
60355;BME280;46198;51.464;-0.066;2022-11-04T06:27:39;100574.69;;;7.02;100.00
60355;BME280;46198;51.464;-0.066;2022-11-04T06:30:10;100583.22;;;6.99;100.00
60355;BME280;46198;51.464;-0.066;2022-11-04T06:32:38;100586.91;;;6.92;100.00
60355;BME280;46198;51.464;-0.066;2022-11-04T06:35:07;100602.06;;;6.86;100.00
60355;BME280;46198;51.464;-0.066;2022-11-04T06:37:35;100617.59;;;6.84;100.00
60355;BME280;46198;51.464;-0.066;2022-11-04T06:40:05;100626.09;;;6.81;100.00
60355;BME280;46198;51.464;-0.066;2022-11-04T06:42:34;100631.09;;;6.84;100.00
60355;BME280;46198;51.464;-0.066;2022-11-04T06:45:04;100641.91;;;6.84;100.00
60355;BME280;46198;51.464;-0.066;2022-11-04T06:47:32;100651.03;;;6.83;100.00
60355;BME280;46198;51.464;-0.066;2022-11-04T06:50:00;100659.78;;;6.85;100.00
60355;BME280;46198;51.464;-0.066;2022-11-04T06:52:29;100661.66;;;6.84;100.00
60355;BME280;46198;51.464;-0.066;2022-11-04T06:54:57;100670.16;;;6.88;100.00
60355;BME280;46198;51.464;-0.066;2022-11-04T06:57:25;100675.75;;;6.86;100.00
60355;BME280;46198;51.464;-0.066;2022-11-04T06:59:53;100683.84;;;6.86;100.00
60355;BME280;46198;51.464;-0.066;2022-11-04T07:02:22;100675.97;;;6.85;100.00
60355;BME280;46198;51.464;-0.066;2022-11-04T07:04:53;100692.56;;;6.82;100.00
60355;BME280;46198;51.464;-0.066;2022-11-04T07:07:21;100698.97;;;6.81;100.00
60355;BME280;46198;51.464;-0.066;2022-11-04T07:09:49;100715.81;;;6.83;100.00
60355;BME280;46198;51.464;-0.066;2022-11-04T07:12:17;100716.38;;;6.78;100.00
60355;BME280;46198;51.464;-0.066;2022-11-04T07:14:45;100721.16;;;6.76;100.00
60355;BME280;46198;51.464;-0.066;2022-11-04T07:17:13;100736.50;;;6.76;100.00
60355;BME280;46198;51.464;-0.066;2022-11-04T07:19:42;100753.09;;;6.73;100.00
60355;BME280;46198;51.464;-0.066;2022-11-04T07:22:10;100768.84;;;6.69;100.00
60355;BME280;46198;51.464;-0.066;2022-11-04T07:24:38;100773.81;;;6.65;100.00
60355;BME280;46198;51.464;-0.066;2022-11-04T07:27:07;100777.13;;;6.68;100.00
60355;BME280;46198;51.464;-0.066;2022-11-04T07:29:35;100791.25;;;6.70;100.00
60355;BME280;46198;51.464;-0.066;2022-11-04T07:32:05;100794.63;;;6.72;100.00
60355;BME280;46198;51.464;-0.066;2022-11-04T07:34:33;100800.78;;;6.65;100.00
60355;BME280;46198;51.464;-0.066;2022-11-04T07:37:03;100814.72;;;6.69;100.00
60355;BME280;46198;51.464;-0.066;2022-11-04T07:39:31;100815.56;;;6.70;100.00
60355;BME280;46198;51.464;-0.066;2022-11-04T07:41:59;100821.41;;;6.73;100.00
60355;BME280;46198;51.464;-0.066;2022-11-04T07:44:28;100830.34;;;6.74;100.00
60355;BME280;46198;51.464;-0.066;2022-11-04T07:46:56;100841.97;;;6.74;100.00
60355;BME280;46198;51.464;-0.066;2022-11-04T07:49:25;100844.44;;;6.76;100.00
60355;BME280;46198;51.464;-0.066;2022-11-04T07:51:53;100852.53;;;6.76;100.00
60355;BME280;46198;51.464;-0.066;2022-11-04T07:54:22;100848.63;;;6.78;100.00
60355;BME280;46198;51.464;-0.066;2022-11-04T07:56:50;100863.59;;;6.81;100.00
60355;BME280;46198;51.464;-0.066;2022-11-04T07:59:19;100864.44;;;6.81;100.00
60355;BME280;46198;51.464;-0.066;2022-11-04T08:01:47;100870.28;;;6.85;100.00
60355;BME280;46198;51.464;-0.066;2022-11-04T08:04:15;100869.50;;;6.91;100.00
60355;BME280;46198;51.464;-0.066;2022-11-04T08:06:43;100872.84;;;6.93;100.00
60355;BME280;46198;51.464;-0.066;2022-11-04T08:09:12;100888.66;;;6.96;100.00
60355;BME280;46198;51.464;-0.066;2022-11-04T08:11:43;100880.41;;;7.04;100.00
60355;BME280;46198;51.464;-0.066;2022-11-04T08:14:11;100884.78;;;7.05;100.00
60355;BME280;46198;51.464;-0.066;2022-11-04T08:16:40;100898.72;;;7.09;100.00
60355;BME280;46198;51.464;-0.066;2022-11-04T08:19:08;100895.00;;;7.10;100.00
60355;BME280;46198;51.464;-0.066;2022-11-04T08:21:36;100904.16;;;7.16;100.00
60355;BME280;46198;51.464;-0.066;2022-11-04T08:24:04;100909.19;;;7.19;100.00
60355;BME280;46198;51.464;-0.066;2022-11-04T08:26:33;100904.25;;;7.22;100.00
60355;BME280;46198;51.464;-0.066;2022-11-04T08:29:06;100916.88;;;7.22;100.00
60355;BME280;46198;51.464;-0.066;2022-11-04T08:31:35;100916.13;;;7.28;100.00
60355;BME280;46198;51.464;-0.066;2022-11-04T08:34:03;100918.22;;;7.32;100.00
60355;BME280;46198;51.464;-0.066;2022-11-04T08:36:35;100927.59;;;7.37;100.00
60355;BME280;46198;51.464;-0.066;2022-11-04T08:39:04;100935.50;;;7.38;100.00
60355;BME280;46198;51.464;-0.066;2022-11-04T08:41:38;100937.63;;;7.43;100.00
60355;BME280;46198;51.464;-0.066;2022-11-04T08:44:09;100945.53;;;7.44;100.00
60355;BME280;46198;51.464;-0.066;2022-11-04T08:46:38;100945.97;;;7.48;100.00
60355;BME280;46198;51.464;-0.066;2022-11-04T08:49:06;100948.53;;;7.56;100.00
60355;BME280;46198;51.464;-0.066;2022-11-04T08:51:41;100955.16;;;7.53;100.00
60355;BME280;46198;51.464;-0.066;2022-11-04T08:54:09;100958.94;;;7.59;100.00
60355;BME280;46198;51.464;-0.066;2022-11-04T08:56:38;100959.00;;;7.66;100.00
60355;BME280;46198;51.464;-0.066;2022-11-04T08:59:08;100973.78;;;7.70;100.00
60355;BME280;46198;51.464;-0.066;2022-11-04T09:01:37;100978.16;;;7.71;100.00
60355;BME280;46198;51.464;-0.066;2022-11-04T09:04:05;100973.19;;;7.74;100.00
60355;BME280;46198;51.464;-0.066;2022-11-04T09:06:36;100981.31;;;7.81;100.00
60355;BME280;46198;51.464;-0.066;2022-11-04T09:09:06;100981.97;;;7.83;100.00
60355;BME280;46198;51.464;-0.066;2022-11-04T09:11:37;100994.50;;;7.91;100.00
60355;BME280;46198;51.464;-0.066;2022-11-04T09:14:08;100996.63;;;7.95;100.00
60355;BME280;46198;51.464;-0.066;2022-11-04T09:16:37;101000.16;;;7.96;100.00
60355;BME280;46198;51.464;-0.066;2022-11-04T09:19:06;101005.59;;;8.03;100.00
60355;BME280;46198;51.464;-0.066;2022-11-04T09:21:34;101008.97;;;8.11;100.00
60355;BME280;46198;51.464;-0.066;2022-11-04T09:24:03;101012.91;;;8.09;100.00
60355;BME280;46198;51.464;-0.066;2022-11-04T09:26:31;101007.72;;;8.14;100.00
60355;BME280;46198;51.464;-0.066;2022-11-04T09:29:00;101014.81;;;8.15;100.00
60355;BME280;46198;51.464;-0.066;2022-11-04T09:31:29;101021.94;;;8.23;100.00
60355;BME280;46198;51.464;-0.066;2022-11-04T09:33:58;101019.66;;;8.26;100.00
60355;BME280;46198;51.464;-0.066;2022-11-04T09:36:26;101018.03;;;8.32;100.00
60355;BME280;46198;51.464;-0.066;2022-11-04T09:38:54;101033.09;;;8.41;100.00
60355;BME280;46198;51.464;-0.066;2022-11-04T09:41:41;101043.97;;;8.48;100.00
60355;BME280;46198;51.464;-0.066;2022-11-04T09:44:20;101026.50;;;8.57;100.00
60355;BME280;46198;51.464;-0.066;2022-11-04T09:46:55;101029.84;;;8.59;100.00
60355;BME280;46198;51.464;-0.066;2022-11-04T09:49:26;101025.50;;;8.71;100.00
60355;BME280;46198;51.464;-0.066;2022-11-04T09:51:57;101037.00;;;8.80;100.00
60355;BME280;46198;51.464;-0.066;2022-11-04T09:54:31;101045.56;;;8.83;100.00
60355;BME280;46198;51.464;-0.066;2022-11-04T09:57:00;101045.38;;;8.92;100.00
60355;BME280;46198;51.464;-0.066;2022-11-04T09:59:32;101045.78;;;8.95;100.00
60355;BME280;46198;51.464;-0.066;2022-11-04T10:02:21;101047.06;;;9.06;100.00
60355;BME280;46198;51.464;-0.066;2022-11-04T10:05:03;101050.88;;;9.18;100.00
60355;BME280;46198;51.464;-0.066;2022-11-04T10:07:44;101059.41;;;9.22;100.00
60355;BME280;46198;51.464;-0.066;2022-11-04T10:10:22;101060.88;;;9.24;100.00
60355;BME280;46198;51.464;-0.066;2022-11-04T10:13:05;101057.13;;;9.25;100.00
60355;BME280;46198;51.464;-0.066;2022-11-04T10:16:01;101068.84;;;9.46;100.00
60355;BME280;46198;51.464;-0.066;2022-11-04T10:18:47;101069.91;;;9.58;100.00
60355;BME280;46198;51.464;-0.066;2022-11-04T10:21:29;101070.50;;;9.60;100.00
60355;BME280;46198;51.464;-0.066;2022-11-04T10:24:10;101078.03;;;9.78;100.00
60355;BME280;46198;51.464;-0.066;2022-11-04T10:26:44;101079.91;;;9.71;100.00
60355;BME280;46198;51.464;-0.066;2022-11-04T10:29:14;101085.94;;;9.80;100.00
60355;BME280;46198;51.464;-0.066;2022-11-04T10:31:44;101084.47;;;9.90;100.00
60355;BME280;46198;51.464;-0.066;2022-11-04T10:34:25;101090.13;;;9.75;100.00
60355;BME280;46198;51.464;-0.066;2022-11-04T10:36:55;101098.69;;;9.86;100.00
60355;BME280;46198;51.464;-0.066;2022-11-04T10:39:28;101108.28;;;9.82;100.00
60355;BME280;46198;51.464;-0.066;2022-11-04T10:41:57;101120.59;;;9.91;100.00
60355;BME280;46198;51.464;-0.066;2022-11-04T10:44:27;101113.69;;;9.95;100.00
60355;BME280;46198;51.464;-0.066;2022-11-04T10:47:14;101112.66;;;9.96;100.00
60355;BME280;46198;51.464;-0.066;2022-11-04T10:50:16;101119.34;;;10.00;100.00
60355;BME280;46198;51.464;-0.066;2022-11-04T10:53:06;101131.00;;;10.01;100.00
60355;BME280;46198;51.464;-0.066;2022-11-04T10:55:41;101131.44;;;9.97;100.00
60355;BME280;46198;51.464;-0.066;2022-11-04T10:58:17;101136.47;;;10.07;100.00
60355;BME280;46198;51.464;-0.066;2022-11-04T11:00:46;101134.13;;;10.17;100.00
60355;BME280;46198;51.464;-0.066;2022-11-04T11:03:29;101133.09;;;10.18;100.00
60355;BME280;46198;51.464;-0.066;2022-11-04T11:06:13;101132.47;;;10.23;100.00
60355;BME280;46198;51.464;-0.066;2022-11-04T11:08:42;101146.69;;;10.18;100.00
60355;BME280;46198;51.464;-0.066;2022-11-04T11:11:12;101139.16;;;10.20;100.00
60355;BME280;46198;51.464;-0.066;2022-11-04T11:13:43;101145.00;;;10.11;98.97
60355;BME280;46198;51.464;-0.066;2022-11-04T11:16:16;101139.78;;;10.23;100.00
60355;BME280;46198;51.464;-0.066;2022-11-04T11:19:12;101133.50;;;10.22;100.00
60355;BME280;46198;51.464;-0.066;2022-11-04T11:21:46;101157.75;;;10.24;99.17
60355;BME280;46198;51.464;-0.066;2022-11-04T11:24:19;101147.72;;;10.31;98.61
60355;BME280;46198;51.464;-0.066;2022-11-04T11:26:49;101153.56;;;10.41;100.00
60355;BME280;46198;51.464;-0.066;2022-11-04T11:29:22;101157.13;;;10.35;100.00
60355;BME280;46198;51.464;-0.066;2022-11-04T11:31:52;101162.75;;;10.47;96.34
60355;BME280;46198;51.464;-0.066;2022-11-04T11:34:23;101180.50;;;10.42;96.43
60355;BME280;46198;51.464;-0.066;2022-11-04T11:36:56;101167.56;;;10.38;98.33
60355;BME280;46198;51.464;-0.066;2022-11-04T11:39:26;101165.47;;;10.40;97.03
60355;BME280;46198;51.464;-0.066;2022-11-04T11:41:58;101175.06;;;10.49;100.00
60355;BME280;46198;51.464;-0.066;2022-11-04T11:44:28;101175.69;;;10.58;95.42
60355;BME280;46198;51.464;-0.066;2022-11-04T11:47:00;101178.16;;;10.66;99.47
60355;BME280;46198;51.464;-0.066;2022-11-04T11:49:31;101187.13;;;10.80;100.00
60355;BME280;46198;51.464;-0.066;2022-11-04T11:52:21;101194.81;;;10.96;98.32
60355;BME280;46198;51.464;-0.066;2022-11-04T11:54:54;101191.84;;;11.04;93.00
60355;BME280;46198;51.464;-0.066;2022-11-04T11:57:32;101183.84;;;11.23;100.00
60355;BME280;46198;51.464;-0.066;2022-11-04T12:00:04;101191.75;;;11.31;94.55
60355;BME280;46198;51.464;-0.066;2022-11-04T12:02:58;101195.47;;;11.43;91.85
60355;BME280;46198;51.464;-0.066;2022-11-04T12:05:31;101192.47;;;11.58;92.88
60355;BME280;46198;51.464;-0.066;2022-11-04T12:08:34;101203.66;;;11.75;88.61
60355;BME280;46198;51.464;-0.066;2022-11-04T12:11:30;101196.41;;;12.01;90.43
60355;BME280;46198;51.464;-0.066;2022-11-04T12:14:05;101195.06;;;12.10;86.27
60355;BME280;46198;51.464;-0.066;2022-11-04T12:16:42;101196.06;;;11.90;77.61
60355;BME280;46198;51.464;-0.066;2022-11-04T12:19:25;101188.53;;;11.92;77.67
60355;BME280;46198;51.464;-0.066;2022-11-04T12:22:02;101188.88;;;12.03;80.14
60355;BME280;46198;51.464;-0.066;2022-11-04T12:24:39;101189.53;;;12.23;82.46
60355;BME280;46198;51.464;-0.066;2022-11-04T12:27:14;101186.63;;;12.43;79.80
60355;BME280;46198;51.464;-0.066;2022-11-04T12:29:58;101193.44;;;12.34;71.70
60355;BME280;46198;51.464;-0.066;2022-11-04T12:32:39;101194.13;;;12.48;77.00
60355;BME280;46198;51.464;-0.066;2022-11-04T12:35:20;101198.31;;;12.25;74.21
60355;BME280;46198;51.464;-0.066;2022-11-04T12:38:00;101199.50;;;12.11;73.63
60355;BME280;46198;51.464;-0.066;2022-11-04T12:40:42;101199.69;;;12.09;72.54
60355;BME280;46198;51.464;-0.066;2022-11-04T12:43:39;101200.34;;;12.05;77.94
60355;BME280;46198;51.464;-0.066;2022-11-04T12:46:12;101208.78;;;11.96;82.55
60355;BME280;46198;51.464;-0.066;2022-11-04T12:48:53;101213.22;;;11.91;71.98
60355;BME280;46198;51.464;-0.066;2022-11-04T12:51:39;101213.72;;;11.74;74.73
60355;BME280;46198;51.464;-0.066;2022-11-04T12:54:29;101222.16;;;11.60;74.77
60355;BME280;46198;51.464;-0.066;2022-11-04T12:57:11;101231.22;;;11.47;70.61
60355;BME280;46198;51.464;-0.066;2022-11-04T12:59:57;101223.69;;;11.49;74.46
60355;BME280;46198;51.464;-0.066;2022-11-04T13:02:32;101239.28;;;11.67;67.82
60355;BME280;46198;51.464;-0.066;2022-11-04T13:05:05;101239.56;;;11.52;68.79
60355;BME280;46198;51.464;-0.066;2022-11-04T13:07:40;101245.69;;;11.41;68.63
60355;BME280;46198;51.464;-0.066;2022-11-04T13:10:17;101249.22;;;11.41;67.62
60355;BME280;46198;51.464;-0.066;2022-11-04T13:12:52;101246.50;;;11.41;76.05